Time;durP1;ratioP1;P1;durP2;ratioP2;P2;SDS_P1;SDS_P2;PMS_P1;PMS_P2;Temp;Humidity;BMP_temperature;BMP_pressure;BME280_temperature;BME280_humidity;BME280_pressure;Samples;Min_cycle;Max_cycle;Signal;HPM_P1;HPM_P2
2024/04/17 00:01:59;;;;;;;9.15;3.30;;;11.90;69.60;;;;;;5347193;26;20003;-79
2024/04/17 00:04:25;;;;;;;5.93;2.65;;;11.90;69.50;;;;;;5347062;26;19996;-79
2024/04/17 00:06:50;;;;;;;7.60;3.13;;;12.00;69.70;;;;;;5346837;26;20016;-79
2024/04/17 00:09:16;;;;;;;4.72;2.95;;;12.00;69.70;;;;;;5347172;26;20000;-80
2024/04/17 00:11:42;;;;;;;6.60;3.63;;;12.00;69.80;;;;;;5346909;26;20038;-80
2024/04/17 00:14:08;;;;;;;10.57;3.50;;;12.00;70.30;;;;;;5329554;26;19997;-79
2024/04/17 00:16:34;;;;;;;6.35;2.65;;;11.90;70.80;;;;;;5307672;26;20071;-78
2024/04/17 00:19:00;;;;;;;7.40;2.97;;;11.80;71.90;;;;;;5347432;26;19997;-80
2024/04/17 00:21:25;;;;;;;5.22;3.05;;;11.70;73.00;;;;;;5326232;26;20012;-79
2024/04/17 00:23:51;;;;;;;7.80;3.45;;;11.70;73.10;;;;;;5345299;26;20451;-78
2024/04/17 00:26:17;;;;;;;6.45;3.30;;;11.60;73.20;;;;;;5342593;26;20007;-80
2024/04/17 00:28:43;;;;;;;7.25;3.53;;;11.60;73.30;;;;;;5341683;26;19997;-80
2024/04/17 00:31:08;;;;;;;6.45;3.35;;;11.60;74.00;;;;;;5297843;26;20037;-79
2024/04/17 00:33:34;;;;;;;7.95;3.13;;;11.60;74.20;;;;;;5336409;26;19998;-81
2024/04/17 00:36:00;;;;;;;5.97;3.08;;;11.60;73.90;;;;;;5316689;26;20465;-80
2024/04/17 00:38:26;;;;;;;5.63;2.78;;;11.60;74.20;;;;;;5347262;26;20037;-80
2024/04/17 00:40:51;;;;;;;8.48;3.00;;;11.50;74.20;;;;;;5345478;26;20005;-81
2024/04/17 00:43:17;;;;;;;7.30;3.00;;;11.40;74.60;;;;;;5346927;26;20446;-80
2024/04/17 00:45:45;;;;;;;6.45;3.47;;;11.50;74.80;;;;;;5344725;26;20358;-81
2024/04/17 00:48:15;;;;;;;7.28;3.28;;;11.50;74.20;;;;;;5346968;26;20036;-81
2024/04/17 00:50:45;;;;;;;5.63;3.22;;;11.50;74.50;;;;;;5303621;26;20451;-80
2024/04/17 00:53:15;;;;;;;4.28;2.92;;;11.50;74.10;;;;;;5346391;26;20008;-80
2024/04/17 00:55:41;;;;;;;9.25;2.90;;;11.50;74.30;;;;;;5346853;26;20016;-80
2024/04/17 00:58:11;;;;;;;6.85;3.08;;;11.60;74.40;;;;;;5346787;26;20020;-78
2024/04/17 01:00:37;;;;;;;6.72;3.10;;;11.60;74.60;;;;;;5346708;26;20009;-80
2024/04/17 01:03:04;;;;;;;7.22;3.40;;;11.60;74.60;;;;;;5347290;26;20082;-79
2024/04/17 01:05:31;;;;;;;8.50;3.53;;;11.60;74.10;;;;;;5332895;26;20001;-80
2024/04/17 01:07:58;;;;;;;5.85;3.03;;;11.60;74.70;;;;;;5304659;26;20012;-80
2024/04/17 01:10:24;;;;;;;7.38;3.13;;;11.60;74.90;;;;;;5346950;26;20079;-78
2024/04/17 01:12:49;;;;;;;7.35;3.22;;;11.60;75.00;;;;;;5302350;26;20013;-78
2024/04/17 01:15:16;;;;;;;4.90;3.08;;;11.60;75.00;;;;;;5345040;26;20001;-79
2024/04/17 01:17:42;;;;;;;4.10;2.80;;;11.60;75.10;;;;;;5346674;26;20001;-80
2024/04/17 01:20:08;;;;;;;5.75;3.33;;;11.60;75.00;;;;;;5343780;26;20013;-80
2024/04/17 01:22:33;;;;;;;8.35;3.38;;;11.60;75.40;;;;;;5331760;26;20015;-79
2024/04/17 01:24:59;;;;;;;7.68;3.35;;;11.60;75.50;;;;;;5326688;26;20005;-79
2024/04/17 01:27:25;;;;;;;8.02;3.33;;;11.60;75.60;;;;;;5330698;26;20005;-80
2024/04/17 01:29:51;;;;;;;5.22;3.05;;;11.60;75.80;;;;;;5338408;26;20042;-81
2024/04/17 01:32:16;;;;;;;7.13;3.58;;;11.60;75.70;;;;;;5346415;26;20001;-80
2024/04/17 01:34:42;;;;;;;5.85;3.25;;;11.50;75.80;;;;;;5347046;26;20413;-80
2024/04/17 01:37:08;;;;;;;7.22;3.25;;;11.50;75.70;;;;;;5346997;26;20028;-80
2024/04/17 01:39:34;;;;;;;9.13;3.08;;;11.50;75.60;;;;;;5315745;26;20019;-80
2024/04/17 01:42:00;;;;;;;5.70;3.10;;;11.40;76.10;;;;;;5297510;27;20072;-78
2024/04/17 01:44:26;;;;;;;10.20;3.70;;;11.40;76.90;;;;;;5328361;26;20015;-81
2024/04/17 01:46:51;;;;;;;6.70;3.88;;;11.50;76.70;;;;;;5302548;26;20013;-80
2024/04/17 01:49:17;;;;;;;6.97;3.63;;;11.50;76.70;;;;;;5335859;26;20005;-80
2024/04/17 01:51:43;;;;;;;6.38;3.40;;;11.50;76.50;;;;;;5346083;26;20453;-80
2024/04/17 01:54:09;;;;;;;10.38;3.92;;;11.40;77.20;;;;;;5345933;26;20457;-81
2024/04/17 01:56:34;;;;;;;10.60;3.85;;;11.30;78.40;;;;;;5345918;26;20005;-80
2024/04/17 01:59:00;;;;;;;8.50;3.67;;;11.30;78.40;;;;;;5346921;26;20337;-78
2024/04/17 02:01:26;;;;;;;9.02;3.53;;;11.20;78.80;;;;;;5346573;26;20012;-79
2024/04/17 02:03:52;;;;;;;8.75;3.28;;;11.20;79.20;;;;;;5338533;26;20016;-78
2024/04/17 02:06:18;;;;;;;5.65;3.75;;;11.10;79.60;;;;;;5314590;26;20047;-79
2024/04/17 02:08:44;;;;;;;10.02;3.90;;;11.10;80.30;;;;;;5346960;26;20074;-81
2024/04/17 02:11:10;;;;;;;8.18;3.60;;;11.00;81.00;;;;;;5346539;26;19997;-79
2024/04/17 02:13:35;;;;;;;6.85;3.58;;;10.80;81.80;;;;;;5346286;26;20012;-80
2024/04/17 02:16:06;;;;;;;7.22;4.55;;;10.70;82.50;;;;;;5322809;26;20343;-81
2024/04/17 02:18:32;;;;;;;13.60;4.07;;;10.60;83.70;;;;;;5297899;26;20451;-80
2024/04/17 02:21:00;;;;;;;8.50;3.90;;;10.50;84.70;;;;;;5321249;26;20002;-80
2024/04/17 02:23:28;;;;;;;9.13;4.10;;;10.50;85.20;;;;;;5326612;26;20023;-79
2024/04/17 02:25:55;;;;;;;8.13;4.30;;;10.50;85.90;;;;;;5345075;26;20056;-78
2024/04/17 02:28:21;;;;;;;10.23;3.22;;;10.40;86.60;;;;;;5345293;26;20001;-79
2024/04/17 02:30:47;;;;;;;6.97;3.85;;;10.40;86.70;;;;;;5345203;26;20017;-78
2024/04/17 02:33:13;;;;;;;10.48;3.53;;;10.40;87.00;;;;;;5344928;26;20004;-80
2024/04/17 02:35:39;;;;;;;8.27;3.85;;;10.40;87.40;;;;;;5345070;26;20012;-79
2024/04/17 02:38:04;;;;;;;10.15;3.78;;;10.40;87.90;;;;;;5317167;26;19998;-80
2024/04/17 02:40:30;;;;;;;6.10;3.60;;;10.40;88.30;;;;;;5334356;26;20347;-79
2024/04/17 02:42:56;;;;;;;6.70;3.08;;;10.40;88.30;;;;;;5329478;26;19993;-79
2024/04/17 02:45:22;;;;;;;6.50;3.45;;;10.40;88.40;;;;;;5344677;26;20024;-79
2024/04/17 02:47:47;;;;;;;6.90;3.67;;;10.50;88.30;;;;;;5344979;26;20413;-79
2024/04/17 02:50:13;;;;;;;7.63;3.63;;;10.50;88.50;;;;;;5345458;26;20004;-79
2024/04/17 02:52:39;;;;;;;9.02;3.60;;;10.50;88.80;;;;;;5331718;26;20009;-79
2024/04/17 02:55:05;;;;;;;5.70;3.60;;;10.60;88.90;;;;;;5316319;26;20014;-80
2024/04/17 02:57:31;;;;;;;6.80;3.45;;;10.70;88.80;;;;;;5337214;26;20005;-80
2024/04/17 02:59:56;;;;;;;7.82;3.70;;;10.70;88.70;;;;;;5345860;26;20350;-79
2024/04/17 03:02:22;;;;;;;6.05;3.42;;;10.60;88.80;;;;;;5345262;26;20372;-79
2024/04/17 03:04:48;;;;;;;7.28;3.25;;;10.60;88.60;;;;;;5307199;27;20020;-80
2024/04/17 03:07:14;;;;;;;7.32;3.55;;;10.60;88.80;;;;;;5332575;26;20005;-80
2024/04/17 03:09:39;;;;;;;8.30;3.03;;;10.70;89.20;;;;;;5340687;26;20347;-80
2024/04/17 03:12:06;;;;;;;5.20;3.58;;;10.60;89.70;;;;;;5315915;26;20024;-79
2024/04/17 03:14:32;;;;;;;8.48;3.53;;;10.60;90.20;;;;;;5347852;26;20099;-80
2024/04/17 03:16:57;;;;;;;6.07;3.13;;;10.60;90.20;;;;;;5348750;26;20416;-80
2024/04/17 03:19:23;;;;;;;7.25;3.35;;;10.60;90.10;;;;;;5348560;26;19997;-80
2024/04/17 03:21:49;;;;;;;6.57;3.95;;;10.60;90.10;;;;;;5329831;26;20009;-79
2024/04/17 03:24:15;;;;;;;5.55;3.28;;;10.60;90.10;;;;;;5348068;26;20082;-78
2024/04/17 03:26:40;;;;;;;6.35;3.45;;;10.40;90.30;;;;;;5341128;26;20011;-80
2024/04/17 03:29:06;;;;;;;6.20;3.60;;;10.30;90.60;;;;;;5323214;26;20044;-79
2024/04/17 03:31:32;;;;;;;5.75;2.70;;;10.30;90.70;;;;;;5346411;26;20013;-79
2024/04/17 03:33:58;;;;;;;8.57;3.58;;;10.20;90.70;;;;;;5325992;26;20082;-79
2024/04/17 03:36:23;;;;;;;6.80;3.00;;;10.00;90.90;;;;;;5348065;26;20043;-78
2024/04/17 03:38:49;;;;;;;5.30;2.92;;;9.90;91.20;;;;;;5347202;26;20078;-78
2024/04/17 03:41:15;;;;;;;4.65;3.00;;;9.70;91.70;;;;;;5316665;26;20009;-80
2024/04/17 03:43:41;;;;;;;6.25;4.25;;;9.70;92.10;;;;;;5329223;26;20901;-80
2024/04/17 03:46:07;;;;;;;5.40;3.25;;;9.70;92.40;;;;;;5331746;26;20132;-81
2024/04/17 03:48:33;;;;;;;5.82;3.90;;;9.70;92.90;;;;;;5347813;26;20001;-83
2024/04/17 03:50:58;;;;;;;4.43;3.28;;;9.70;93.20;;;;;;5317511;26;20012;-81
2024/04/17 03:53:27;;;;;;;6.90;3.83;;;9.70;93.50;;;;;;5309747;27;20075;-80
2024/04/17 03:55:53;;;;;;;5.50;3.28;;;9.60;93.60;;;;;;5312959;26;20016;-80
2024/04/17 03:58:18;;;;;;;5.18;3.20;;;9.60;94.00;;;;;;5322915;26;19996;-82
2024/04/17 04:00:44;;;;;;;6.80;2.97;;;9.50;94.20;;;;;;5383334;26;20011;-79
2024/04/17 04:03:10;;;;;;;6.82;4.35;;;9.40;94.60;;;;;;5382950;26;20024;-81
2024/04/17 04:05:36;;;;;;;6.03;3.53;;;9.30;95.00;;;;;;5383870;26;20049;-81
2024/04/17 04:08:02;;;;;;;7.95;4.00;;;9.30;95.40;;;;;;5359657;26;20445;-82
2024/04/17 04:10:28;;;;;;;4.90;3.42;;;9.40;95.70;;;;;;5354374;26;19996;-81
2024/04/17 04:12:54;;;;;;;6.15;4.18;;;9.40;96.00;;;;;;5359120;26;20005;-80
2024/04/17 04:15:19;;;;;;;7.47;3.83;;;9.50;96.30;;;;;;5394359;26;20058;-81
2024/04/17 04:17:45;;;;;;;11.27;4.03;;;9.50;96.60;;;;;;5388245;26;20004;-80
2024/04/17 04:20:11;;;;;;;8.30;4.60;;;9.50;96.90;;;;;;5355457;26;20072;-82
2024/04/17 04:22:37;;;;;;;9.52;4.03;;;9.40;97.30;;;;;;5372851;26;20004;-81
2024/04/17 04:25:03;;;;;;;8.45;3.80;;;9.40;97.50;;;;;;5375217;26;20359;-80
2024/04/17 04:27:29;;;;;;;6.95;4.55;;;9.50;97.80;;;;;;5334331;26;20018;-81
2024/04/17 04:29:54;;;;;;;6.97;4.10;;;9.50;97.70;;;;;;5362509;26;20002;-81
2024/04/17 04:32:20;;;;;;;7.93;4.25;;;9.60;97.70;;;;;;5379195;26;20069;-81
2024/04/17 04:34:46;;;;;;;9.85;4.93;;;9.60;97.70;;;;;;5382424;26;20426;-81
2024/04/17 04:37:12;;;;;;;7.13;4.13;;;9.70;97.80;;;;;;5383231;26;20069;-80
2024/04/17 04:39:37;;;;;;;7.85;4.03;;;9.70;97.80;;;;;;5351202;26;20011;-81
2024/04/17 04:42:03;;;;;;;10.02;4.20;;;9.70;97.90;;;;;;5350490;26;20007;-81
2024/04/17 04:44:29;;;;;;;4.57;3.92;;;9.60;98.00;;;;;;5381875;26;20032;-82
2024/04/17 04:46:56;;;;;;;8.95;4.78;;;9.50;98.40;;;;;;5369789;26;20011;-81
2024/04/17 04:49:25;;;;;;;8.10;4.10;;;9.40;98.50;;;;;;5322318;26;20432;-81
2024/04/17 04:51:51;;;;;;;7.63;4.53;;;9.40;98.80;;;;;;5382129;26;20000;-82
2024/04/17 04:54:17;;;;;;;7.35;4.47;;;9.40;99.00;;;;;;5374315;26;20003;-82
2024/04/17 04:56:43;;;;;;;8.90;4.05;;;9.40;99.10;;;;;;5344639;26;20078;-82
2024/04/17 04:59:09;;;;;;;7.57;4.45;;;9.40;99.20;;;;;;5381385;26;20465;-81
2024/04/17 05:01:35;;;;;;;9.27;4.95;;;9.30;99.50;;;;;;5381310;26;20092;-82
2024/04/17 05:04:01;;;;;;;9.50;4.75;;;9.30;99.80;;;;;;5381463;26;20015;-81
2024/04/17 05:06:27;;;;;;;7.32;4.95;;;9.20;99.90;;;;;;5350375;26;20004;-81
2024/04/17 05:08:53;;;;;;;7.90;4.63;;;9.20;99.90;;;;;;5381823;26;20016;-82
2024/04/17 05:11:19;;;;;;;9.70;4.95;;;9.30;99.90;;;;;;5376885;26;20000;-79
2024/04/17 05:14:15;;;;;;;7.55;4.80;;;9.20;99.90;;;;;;5333435;26;20014;-81
2024/04/17 05:16:41;;;;;;;9.20;5.57;;;9.30;99.90;;;;;;5323380;26;20001;-81
2024/04/17 05:19:07;;;;;;;7.95;5.22;;;9.30;99.90;;;;;;5368723;26;20080;-81
2024/04/17 05:21:32;;;;;;;8.32;5.13;;;9.30;99.90;;;;;;5332959;26;20012;-81
2024/04/17 05:23:59;;;;;;;10.45;5.60;;;9.40;99.90;;;;;;5382646;26;20014;-81
2024/04/17 05:26:24;;;;;;;6.05;5.13;;;9.40;99.90;;;;;;5381351;26;20000;-81
2024/04/17 05:28:50;;;;;;;8.73;5.60;;;9.40;99.90;;;;;;5382260;26;20464;-82
2024/04/17 05:31:16;;;;;;;7.43;6.05;;;9.40;99.90;;;;;;5381873;26;20511;-82
2024/04/17 05:33:42;;;;;;;7.85;5.00;;;9.40;99.90;;;;;;5381892;26;20004;-81
2024/04/17 05:36:08;;;;;;;9.82;6.15;;;9.30;99.90;;;;;;5358601;26;20528;-80
2024/04/17 05:38:33;;;;;;;11.18;6.32;;;9.30;99.90;;;;;;5319740;26;20016;-81
2024/04/17 05:40:59;;;;;;;9.77;6.28;;;9.30;99.90;;;;;;5347406;26;20000;-83
2024/04/17 05:43:25;;;;;;;11.02;5.82;;;9.40;99.90;;;;;;5347130;26;20055;-82
2024/04/17 05:45:51;;;;;;;9.48;5.18;;;9.50;99.90;;;;;;5351941;26;20826;-81
2024/04/17 05:48:17;;;;;;;14.02;6.05;;;9.50;99.90;;;;;;5381316;26;20008;-80
2024/04/17 05:50:42;;;;;;;11.27;6.03;;;9.50;99.90;;;;;;5355557;26;20001;-82
2024/04/17 05:53:08;;;;;;;8.05;5.18;;;9.60;99.90;;;;;;5349877;26;20344;-82
2024/04/17 05:55:38;;;;;;;11.20;6.35;;;9.50;99.90;;;;;;5337234;26;20016;-82
2024/04/17 05:58:05;;;;;;;10.23;6.65;;;9.50;99.90;;;;;;5345337;26;20019;-82
2024/04/17 06:00:31;;;;;;;8.18;5.90;;;9.60;99.90;;;;;;5339154;26;20001;-82
2024/04/17 06:02:56;;;;;;;7.63;5.85;;;9.60;99.90;;;;;;5346600;26;20012;-81
2024/04/17 06:05:22;;;;;;;12.93;5.95;;;9.70;99.90;;;;;;5346381;26;20005;-82
2024/04/17 06:07:48;;;;;;;10.55;5.65;;;9.80;99.90;;;;;;5345524;26;20523;-82
2024/04/17 06:10:14;;;;;;;10.90;6.75;;;9.90;99.90;;;;;;5346216;26;20012;-83
2024/04/17 06:12:40;;;;;;;7.70;5.90;;;9.90;99.90;;;;;;5334197;26;20092;-82
2024/04/17 06:15:06;;;;;;;8.77;6.68;;;10.00;99.90;;;;;;5345461;26;20008;-81
2024/04/17 06:17:32;;;;;;;10.45;6.50;;;10.00;99.90;;;;;;5313435;26;20011;-79
2024/04/17 06:19:58;;;;;;;12.23;6.03;;;10.10;99.90;;;;;;5345432;26;20292;-81
2024/04/17 06:22:23;;;;;;;7.82;6.18;;;10.20;99.90;;;;;;5346068;26;20051;-83
2024/04/17 06:24:49;;;;;;;13.45;6.70;;;10.30;99.90;;;;;;5345841;26;20004;-82
2024/04/17 06:27:18;;;;;;;8.38;6.05;;;10.40;99.90;;;;;;5347741;26;20015;-83
2024/04/17 06:29:44;;;;;;;9.20;5.40;;;10.50;99.90;;;;;;5347102;26;20451;-83
2024/04/17 06:32:09;;;;;;;11.13;6.43;;;10.70;99.90;;;;;;5330932;26;20012;-81
2024/04/17 06:34:36;;;;;;;11.38;6.10;;;10.80;99.90;;;;;;5316012;26;20012;-82
2024/04/17 06:37:03;;;;;;;10.90;5.97;;;11.00;99.90;;;;;;5346258;26;20075;-83
2024/04/17 06:39:29;;;;;;;9.60;6.10;;;11.10;99.70;;;;;;5348191;26;20446;-82
2024/04/17 06:41:57;;;;;;;11.82;6.53;;;11.30;99.30;;;;;;5349159;26;20041;-82
2024/04/17 06:44:23;;;;;;;9.20;5.80;;;11.40;99.00;;;;;;5319419;26;20016;-83
2024/04/17 06:46:49;;;;;;;10.75;7.18;;;11.30;98.60;;;;;;5337749;26;20004;-82
2024/04/17 06:49:15;;;;;;;8.73;5.80;;;11.20;98.20;;;;;;5385222;26;20099;-82
2024/04/17 06:51:40;;;;;;;8.13;4.53;;;11.10;98.10;;;;;;5385066;26;20328;-82
2024/04/17 06:54:06;;;;;;;6.45;5.43;;;11.20;97.40;;;;;;5384942;26;19996;-83
2024/04/17 06:56:32;;;;;;;8.23;6.10;;;11.20;97.30;;;;;;5384006;26;20000;-82
2024/04/17 06:58:58;;;;;;;8.77;5.22;;;11.20;97.10;;;;;;5353006;26;20008;-82
2024/04/17 07:01:24;;;;;;;9.00;5.45;;;11.20;97.10;;;;;;5384476;26;20534;-82
2024/04/17 07:03:49;;;;;;;9.60;4.22;;;11.30;96.80;;;;;;5384325;26;19996;-83
2024/04/17 07:06:18;;;;;;;6.40;4.47;;;11.30;95.90;;;;;;5384374;26;20004;-83
2024/04/17 07:08:44;;;;;;;8.80;5.40;;;11.30;95.60;;;;;;5384433;26;20000;-82
2024/04/17 07:11:10;;;;;;;5.25;4.15;;;11.40;95.30;;;;;;5381816;26;20469;-83
2024/04/17 07:13:35;;;;;;;12.43;4.78;;;11.60;95.00;;;;;;5350005;26;20016;-84
2024/04/17 07:16:01;;;;;;;10.07;4.80;;;11.90;94.40;;;;;;5349177;26;20005;-83
2024/04/17 07:18:27;;;;;;;4.70;4.10;;;11.80;92.90;;;;;;5373958;26;20000;-82
2024/04/17 07:20:53;;;;;;;4.75;3.85;;;11.70;93.10;;;;;;5324710;26;20019;-83
2024/04/17 07:23:19;;;;;;;10.50;4.63;;;11.70;93.10;;;;;;5348378;26;20004;-82
2024/04/17 07:25:44;;;;;;;10.68;4.68;;;11.70;92.90;;;;;;5383751;26;20823;-83
2024/04/17 07:28:11;;;;;;;8.30;4.90;;;11.60;92.90;;;;;;5380726;26;20039;-83
2024/04/17 07:30:40;;;;;;;6.18;4.47;;;11.60;93.10;;;;;;5361828;26;20000;-79
2024/04/17 07:33:06;;;;;;;9.60;4.78;;;11.70;92.60;;;;;;5383538;26;20000;-83
2024/04/17 07:35:31;;;;;;;12.13;4.57;;;11.70;92.40;;;;;;5384198;26;20000;-82
2024/04/17 07:37:57;;;;;;;5.32;4.30;;;11.70;92.50;;;;;;5383671;26;20325;-83
2024/04/17 07:40:23;;;;;;;8.27;5.18;;;11.70;92.20;;;;;;5376489;26;20009;-82
2024/04/17 07:42:49;;;;;;;8.70;5.25;;;11.70;92.30;;;;;;5366289;26;20004;-82
2024/04/17 07:45:15;;;;;;;6.50;4.72;;;11.60;92.30;;;;;;5383871;26;20528;-82
2024/04/17 07:47:41;;;;;;;9.23;6.55;;;11.70;92.40;;;;;;5383685;26;20103;-83
2024/04/17 07:50:07;;;;;;;10.80;6.07;;;11.70;92.30;;;;;;5351704;26;20032;-82
2024/04/17 07:52:33;;;;;;;9.95;6.55;;;11.90;92.00;;;;;;5382786;26;20004;-82
2024/04/17 07:54:59;;;;;;;7.30;4.88;;;11.90;91.90;;;;;;5367900;26;19997;-83
2024/04/17 07:57:25;;;;;;;11.10;6.35;;;11.90;91.80;;;;;;5342805;26;20001;-83
2024/04/17 07:59:51;;;;;;;5.55;4.13;;;12.00;92.20;;;;;;5382806;26;19996;-82
2024/04/17 08:02:18;;;;;;;7.72;4.80;;;12.10;91.90;;;;;;5383026;26;19996;-82
2024/04/17 08:04:45;;;;;;;11.85;5.65;;;12.10;91.60;;;;;;5382855;26;20015;-83
2024/04/17 08:07:12;;;;;;;8.65;4.93;;;12.40;91.60;;;;;;5385229;26;20065;-82
2024/04/17 08:09:38;;;;;;;7.75;5.50;;;12.40;91.10;;;;;;5378704;26;20015;-83
2024/04/17 08:12:04;;;;;;;13.85;8.20;;;12.30;91.20;;;;;;5317548;26;20009;-82
2024/04/17 08:14:30;;;;;;;10.52;6.13;;;12.30;91.30;;;;;;5349251;26;20359;-82
2024/04/17 08:16:56;;;;;;;10.30;6.15;;;12.30;91.30;;;;;;5382360;26;20011;-82
2024/04/17 08:19:24;;;;;;;6.80;5.18;;;12.40;91.30;;;;;;5352043;26;20456;-83
2024/04/17 08:21:50;;;;;;;9.27;5.28;;;12.30;91.10;;;;;;5335055;26;20377;-83
2024/04/17 08:24:16;;;;;;;7.22;4.55;;;12.10;90.80;;;;;;5383143;26;20000;-82
2024/04/17 08:26:42;;;;;;;6.32;4.70;;;12.10;90.70;;;;;;5357825;26;20018;-82
2024/04/17 08:29:08;;;;;;;6.47;4.40;;;12.10;90.70;;;;;;5382460;26;20018;-82
2024/04/17 08:31:34;;;;;;;6.20;4.38;;;12.00;90.40;;;;;;5382620;26;20078;-83
2024/04/17 08:34:00;;;;;;;9.43;4.80;;;12.00;90.50;;;;;;5351522;26;20399;-82
2024/04/17 08:36:25;;;;;;;7.95;4.55;;;11.90;90.30;;;;;;5383381;26;20373;-82
2024/04/17 08:38:55;;;;;;;7.18;4.80;;;11.90;90.70;;;;;;5383781;26;20010;-83
2024/04/17 08:41:26;;;;;;;8.07;4.85;;;12.00;90.90;;;;;;5356868;26;20001;-82
2024/04/17 08:43:56;;;;;;;7.60;4.85;;;12.30;90.60;;;;;;5360221;26;20005;-82
2024/04/17 08:46:23;;;;;;;7.38;5.57;;;12.30;90.30;;;;;;5374157;26;20000;-81
2024/04/17 08:48:50;;;;;;;7.15;4.55;;;12.10;90.30;;;;;;5348809;26;20016;-83
2024/04/17 08:51:17;;;;;;;8.35;5.30;;;11.90;90.30;;;;;;5381598;26;20004;-83
2024/04/17 08:53:43;;;;;;;8.23;5.10;;;12.00;90.80;;;;;;5382405;26;20008;-82
2024/04/17 08:56:10;;;;;;;7.03;4.43;;;12.00;90.50;;;;;;5382630;26;20001;-82
2024/04/17 08:58:37;;;;;;;7.93;5.15;;;12.00;90.40;;;;;;5382132;26;20527;-82
2024/04/17 09:01:05;;;;;;;12.35;6.70;;;12.20;90.30;;;;;;5381658;26;20012;-83
2024/04/17 09:03:33;;;;;;;5.43;4.70;;;12.30;90.20;;;;;;5368975;26;20421;-83
2024/04/17 09:06:00;;;;;;;8.45;4.97;;;12.40;89.40;;;;;;5374510;26;20000;-83
2024/04/17 09:08:26;;;;;;;6.53;4.57;;;12.10;89.20;;;;;;5381952;26;20004;-83
2024/04/17 09:10:54;;;;;;;7.32;5.00;;;12.00;89.80;;;;;;5350926;26;20012;-82
2024/04/17 09:13:23;;;;;;;13.23;6.47;;;12.00;90.30;;;;;;5341653;26;20099;-82
2024/04/17 09:15:49;;;;;;;7.15;4.20;;;12.20;90.30;;;;;;5350955;26;20081;-82
2024/04/17 09:18:14;;;;;;;6.45;4.28;;;12.20;87.90;;;;;;5382780;26;20000;-82
2024/04/17 09:20:42;;;;;;;7.80;4.32;;;12.00;88.20;;;;;;5371961;26;20001;-81
2024/04/17 09:23:09;;;;;;;10.55;5.60;;;12.00;89.70;;;;;;5344775;26;20019;-83
2024/04/17 09:25:37;;;;;;;6.15;4.78;;;12.20;89.00;;;;;;5352836;26;20004;-82
2024/04/17 09:28:03;;;;;;;7.45;5.45;;;12.40;89.20;;;;;;5382554;26;20011;-82
2024/04/17 09:30:29;;;;;;;6.95;5.10;;;12.40;88.80;;;;;;5382397;26;20048;-82
2024/04/17 09:32:55;;;;;;;5.60;4.43;;;12.50;88.40;;;;;;5382593;26;20000;-83
2024/04/17 09:35:22;;;;;;;8.07;4.97;;;12.50;87.70;;;;;;5381759;26;20037;-82
2024/04/17 09:37:49;;;;;;;8.63;5.00;;;12.60;87.40;;;;;;5381735;26;20000;-82
2024/04/17 09:40:15;;;;;;;15.40;10.85;;;12.70;86.90;;;;;;5381845;26;20040;-83
2024/04/17 09:42:42;;;;;;;10.32;4.55;;;12.70;86.20;;;;;;5350181;26;20004;-83
2024/04/17 09:45:14;;;;;;;8.05;5.38;;;12.80;85.20;;;;;;5381121;26;20020;-83
2024/04/17 09:47:46;;;;;;;11.63;4.55;;;12.80;85.30;;;;;;5327169;26;20081;-82
2024/04/17 09:50:21;;;;;;;8.35;5.45;;;12.90;85.00;;;;;;5364036;26;20041;-83
2024/04/17 09:52:52;;;;;;;10.95;5.20;;;12.90;84.90;;;;;;5379259;26;19997;-83
2024/04/17 09:55:21;;;;;;;7.95;5.68;;;12.80;85.40;;;;;;5381504;26;20004;-82
2024/04/17 09:57:49;;;;;;;10.80;5.80;;;12.80;85.50;;;;;;5381350;26;20014;-82
2024/04/17 10:00:16;;;;;;;11.48;7.25;;;12.60;86.00;;;;;;5382549;26;20461;-83
2024/04/17 10:02:43;;;;;;;14.00;9.52;;;12.50;86.60;;;;;;5382362;26;20036;-82
2024/04/17 10:05:11;;;;;;;11.80;5.85;;;12.60;86.60;;;;;;5382337;26;20012;-83
2024/04/17 10:07:40;;;;;;;10.38;8.50;;;12.60;86.80;;;;;;5382901;26;20389;-83
2024/04/17 10:10:09;;;;;;;9.13;4.47;;;12.60;87.10;;;;;;5380872;26;20306;-81
2024/04/17 10:12:35;;;;;;;9.48;5.32;;;12.60;86.30;;;;;;5376522;26;20004;-82
2024/04/17 10:15:02;;;;;;;6.80;5.60;;;12.60;86.80;;;;;;5371922;26;20428;-83
2024/04/17 10:17:28;;;;;;;6.68;4.93;;;12.80;86.30;;;;;;5315816;26;20001;-83
2024/04/17 10:19:54;;;;;;;10.63;6.35;;;12.60;85.80;;;;;;5376307;26;20019;-82
2024/04/17 10:22:20;;;;;;;8.77;5.85;;;12.50;86.80;;;;;;5332419;26;20445;-83
2024/04/17 10:24:46;;;;;;;6.60;4.57;;;12.50;86.20;;;;;;5380673;26;20015;-82
2024/04/17 10:27:21;;;;;;;10.82;4.78;;;12.60;86.00;;;;;;5381699;26;20000;-83
2024/04/17 10:29:47;;;;;;;7.18;4.28;;;12.60;85.00;;;;;;5381181;26;20004;-82
2024/04/17 10:32:15;;;;;;;8.25;5.65;;;12.50;85.00;;;;;;5380907;26;20322;-81
2024/04/17 10:34:49;;;;;;;8.43;4.97;;;12.60;85.40;;;;;;5380013;26;20012;-83
2024/04/17 10:37:17;;;;;;;7.65;5.40;;;12.60;85.50;;;;;;5380654;26;20007;-83
2024/04/17 10:39:44;;;;;;;8.02;4.43;;;12.50;85.80;;;;;;5380793;26;20008;-82
2024/04/17 10:42:17;;;;;;;6.90;5.20;;;12.50;85.80;;;;;;5380037;26;20013;-82
2024/04/17 10:44:50;;;;;;;9.27;5.05;;;12.40;86.20;;;;;;5359713;26;20005;-82
2024/04/17 10:47:21;;;;;;;11.93;5.18;;;12.40;86.60;;;;;;5377812;26;20346;-83
2024/04/17 10:49:53;;;;;;;6.70;4.97;;;12.30;86.90;;;;;;5349734;26;20009;-81
2024/04/17 10:52:20;;;;;;;7.85;5.50;;;12.20;87.30;;;;;;5348949;26;20459;-83
2024/04/17 10:54:47;;;;;;;9.00;4.90;;;12.20;87.40;;;;;;5380527;26;19997;-83
2024/04/17 10:57:15;;;;;;;5.90;4.63;;;12.10;87.60;;;;;;5380263;26;20000;-82
2024/04/17 10:59:48;;;;;;;5.53;4.25;;;12.10;87.80;;;;;;5355276;26;20040;-83
2024/04/17 11:02:14;;;;;;;8.82;4.10;;;12.20;87.60;;;;;;5381130;26;20000;-84
2024/04/17 11:04:41;;;;;;;7.68;3.72;;;12.30;87.00;;;;;;5348689;26;20037;-82
2024/04/17 11:07:10;;;;;;;6.07;4.00;;;12.30;86.70;;;;;;5379570;26;20387;-82
2024/04/17 11:09:36;;;;;;;7.95;3.65;;;12.30;86.50;;;;;;5374724;26;20012;-82
2024/04/17 11:12:03;;;;;;;8.18;2.85;;;12.50;85.90;;;;;;5328890;26;20004;-82
2024/04/17 11:14:29;;;;;;;5.75;3.45;;;12.60;85.70;;;;;;5354391;26;20466;-83
2024/04/17 11:16:56;;;;;;;6.28;3.60;;;12.70;85.20;;;;;;5348508;26;20019;-83
2024/04/17 11:19:22;;;;;;;4.85;3.00;;;12.70;84.90;;;;;;5379530;26;20008;-82
2024/04/17 11:21:51;;;;;;;5.53;2.88;;;12.80;84.60;;;;;;5349141;26;20079;-82
2024/04/17 11:24:20;;;;;;;5.50;3.88;;;12.80;84.60;;;;;;5344080;26;20408;-81
2024/04/17 11:26:46;;;;;;;8.07;2.45;;;13.00;84.10;;;;;;5379153;26;20005;-82
2024/04/17 11:29:16;;;;;;;7.68;3.03;;;13.10;82.80;;;;;;5383904;26;20058;-82
2024/04/17 11:31:43;;;;;;;6.03;3.42;;;13.20;82.90;;;;;;5383520;26;20330;-82
2024/04/17 11:34:21;;;;;;;6.10;3.13;;;13.40;81.90;;;;;;5383461;26;20012;-82
2024/04/17 11:36:48;;;;;;;9.85;3.67;;;13.60;81.60;;;;;;5383030;26;20384;-83
2024/04/17 11:39:17;;;;;;;6.32;3.10;;;13.70;81.40;;;;;;5382979;26;20334;-83
2024/04/17 11:41:47;;;;;;;3.95;3.28;;;13.60;80.90;;;;;;5382646;26;20350;-82
2024/04/17 11:44:13;;;;;;;6.82;2.85;;;13.40;80.20;;;;;;5383076;26;20076;-83
2024/04/17 11:46:40;;;;;;;5.65;3.22;;;13.30;81.20;;;;;;5351596;26;20018;-82
2024/04/17 11:49:08;;;;;;;8.18;3.33;;;13.50;80.50;;;;;;5382583;26;20425;-81
2024/04/17 11:51:34;;;;;;;5.20;2.83;;;13.60;79.60;;;;;;5351194;26;20012;-83
2024/04/17 11:54:01;;;;;;;5.30;3.13;;;13.50;79.20;;;;;;5382492;26;20008;-82
2024/04/17 11:56:27;;;;;;;7.22;3.40;;;13.30;79.20;;;;;;5351973;26;20027;-81
2024/04/17 11:58:53;;;;;;;3.92;2.63;;;13.40;80.40;;;;;;5383287;26;20480;-82
2024/04/17 12:01:19;;;;;;;5.20;2.58;;;13.60;79.20;;;;;;5383851;26;20069;-83
2024/04/17 12:03:45;;;;;;;4.78;1.90;;;13.70;77.60;;;;;;5365212;26;20053;-82
2024/04/17 12:06:12;;;;;;;6.47;2.50;;;13.70;76.30;;;;;;5322314;26;20041;-83
2024/04/17 12:08:38;;;;;;;5.28;2.88;;;13.60;75.50;;;;;;5336033;26;20434;-81
2024/04/17 12:11:04;;;;;;;10.18;2.85;;;13.60;75.30;;;;;;5363986;26;20073;-82
2024/04/17 12:13:30;;;;;;;4.10;2.17;;;13.70;75.50;;;;;;5340133;26;20011;-82
2024/04/17 12:15:56;;;;;;;3.20;2.28;;;13.70;73.90;;;;;;5370012;26;20004;-82
2024/04/17 12:18:22;;;;;;;6.15;1.63;;;13.50;73.90;;;;;;5382171;26;20030;-81
2024/04/17 12:20:47;;;;;;;5.28;2.00;;;13.40;73.40;;;;;;5370783;26;20039;-82
2024/04/17 12:23:19;;;;;;;3.38;2.10;;;13.20;73.40;;;;;;5378220;26;20011;-84
2024/04/17 12:28:31;;;;;;;6.47;2.67;;;13.30;73.20;;;;;;5358401;26;20412;-83
2024/04/17 12:30:57;;;;;;;5.05;2.85;;;13.40;73.40;;;;;;5383352;26;20016;-82
2024/04/17 12:33:24;;;;;;;5.65;2.20;;;13.50;73.20;;;;;;5351791;26;20465;-82
2024/04/17 12:35:50;;;;;;;4.75;2.72;;;13.50;72.80;;;;;;5351037;26;20460;-82
2024/04/17 12:38:16;;;;;;;7.22;4.78;;;13.60;73.90;;;;;;5357449;26;20004;-82
2024/04/17 12:40:42;;;;;;;7.80;3.30;;;13.70;74.10;;;;;;5382425;26;20015;-82
2024/04/17 12:43:08;;;;;;;2.88;1.92;;;13.80;73.00;;;;;;5381785;26;20004;-81
2024/04/17 12:45:34;;;;;;;4.38;2.42;;;13.80;70.40;;;;;;5382240;26;20000;-81
2024/04/17 12:48:00;;;;;;;4.60;2.58;;;13.80;70.60;;;;;;5383029;26;20078;-81